Time;durP1;ratioP1;P1;durP2;ratioP2;P2;SDS_P1;SDS_P2;PMS_P1;PMS_P2;Temp;Humidity;BMP_temperature;BMP_pressure;BME280_temperature;BME280_humidity;BME280_pressure;Samples;Min_cycle;Max_cycle;Signal;HPM_P1;HPM_P2
2022/10/11 00:00:24;;;;;;;7.43;3.58;;;16.40;99.90;;;;;;7391544;19;20146;-76
2022/10/11 00:02:49;;;;;;;7.43;2.72;;;16.40;99.90;;;;;;7390434;19;20179;-76
2022/10/11 00:05:17;;;;;;;8.07;3.03;;;16.40;99.90;;;;;;7390264;19;20151;-76
2022/10/11 00:07:42;;;;;;;6.97;3.35;;;16.40;99.90;;;;;;7384418;19;20558;-76
2022/10/11 00:10:09;;;;;;;4.18;2.70;;;16.40;99.90;;;;;;7389353;19;20122;-76
2022/10/11 00:12:35;;;;;;;5.68;2.72;;;16.40;99.90;;;;;;7391116;19;20151;-76
2022/10/11 00:15:02;;;;;;;9.27;3.15;;;16.40;99.90;;;;;;7388869;19;20681;-77
2022/10/11 00:17:28;;;;;;;6.03;2.92;;;16.40;99.90;;;;;;7389455;19;20145;-76
2022/10/11 00:19:54;;;;;;;5.70;2.90;;;16.30;99.90;;;;;;7388328;19;20663;-77
2022/10/11 00:22:20;;;;;;;7.45;3.10;;;16.40;99.90;;;;;;7388873;19;20257;-76
2022/10/11 00:24:45;;;;;;;4.80;2.58;;;16.40;99.90;;;;;;7392527;19;20150;-79
2022/10/11 00:27:11;;;;;;;7.43;2.75;;;16.40;99.90;;;;;;7382360;19;20142;-77
2022/10/11 00:29:38;;;;;;;6.13;2.60;;;16.40;99.90;;;;;;7389244;19;20145;-77
2022/10/11 00:32:04;;;;;;;4.43;2.80;;;16.30;99.90;;;;;;7389561;19;20162;-76
2022/10/11 00:34:30;;;;;;;6.05;2.70;;;16.30;99.90;;;;;;7390986;19;20138;-77
2022/10/11 00:36:56;;;;;;;7.38;2.80;;;16.40;99.90;;;;;;7391851;19;20135;-78
2022/10/11 00:39:21;;;;;;;6.47;2.72;;;16.20;99.90;;;;;;7384302;19;20139;-76
2022/10/11 00:41:48;;;;;;;5.90;3.08;;;16.20;99.90;;;;;;7389607;19;20161;-75
2022/10/11 00:44:25;;;;;;;7.80;3.03;;;16.30;99.90;;;;;;7388337;19;20221;-76
2022/10/11 00:47:09;;;;;;;7.95;2.80;;;16.20;99.90;;;;;;7387705;19;20169;-76
2022/10/11 00:49:38;;;;;;;4.95;2.80;;;16.30;99.90;;;;;;7387208;19;20612;-77
2022/10/11 00:52:36;;;;;;;5.05;2.65;;;16.20;99.90;;;;;;7388929;19;21859;-76
2022/10/11 00:55:07;;;;;;;5.22;2.63;;;16.20;99.90;;;;;;7384099;19;20155;-76
2022/10/11 00:57:38;;;;;;;5.22;2.97;;;16.10;99.90;;;;;;7389917;19;20194;-76
2022/10/11 01:00:10;;;;;;;5.47;2.55;;;16.00;99.90;;;;;;7388777;19;20152;-82
2022/10/11 01:02:38;;;;;;;4.53;2.83;;;16.10;99.90;;;;;;7390839;19;20171;-82
2022/10/11 01:05:05;;;;;;;3.92;2.50;;;16.10;99.90;;;;;;7385819;19;20921;-84
2022/10/11 01:07:33;;;;;;;5.30;2.88;;;16.20;99.90;;;;;;7389058;19;20138;-82
2022/10/11 01:09:59;;;;;;;4.82;2.70;;;16.10;99.90;;;;;;7388860;19;20695;-83
2022/10/11 01:12:28;;;;;;;5.57;2.70;;;16.20;99.90;;;;;;7388157;19;20157;-82
2022/10/11 01:15:08;;;;;;;6.40;2.63;;;16.30;99.90;;;;;;7389026;19;20165;-83
2022/10/11 01:17:34;;;;;;;9.10;3.15;;;16.20;99.90;;;;;;7383888;19;20666;-83
2022/10/11 01:20:18;;;;;;;3.10;2.67;;;16.20;99.90;;;;;;7387984;19;20150;-82
2022/10/11 01:23:09;;;;;;;8.73;3.08;;;16.10;99.90;;;;;;7388803;19;20620;-82
2022/10/11 01:25:59;;;;;;;4.22;2.70;;;16.00;99.90;;;;;;7391018;19;20254;-82
2022/10/11 01:28:59;;;;;;;5.68;2.90;;;15.80;99.90;;;;;;7386156;19;20494;-83
2022/10/11 01:31:35;;;;;;;4.30;2.55;;;15.90;99.90;;;;;;7389989;19;20163;-82
2022/10/11 01:34:13;;;;;;;7.18;2.88;;;15.90;99.90;;;;;;7388896;19;20146;-82
2022/10/11 01:36:47;;;;;;;4.47;2.67;;;15.90;99.90;;;;;;7387178;19;20628;-83
2022/10/11 01:39:24;;;;;;;4.97;2.55;;;16.00;99.90;;;;;;7387295;19;20147;-82
2022/10/11 01:41:55;;;;;;;5.05;2.65;;;15.90;99.90;;;;;;7387392;19;20525;-83
2022/10/11 01:44:24;;;;;;;7.63;3.03;;;16.10;99.90;;;;;;7388091;19;20143;-83
2022/10/11 01:46:51;;;;;;;5.88;2.58;;;16.00;99.90;;;;;;7389109;19;20142;-83
2022/10/11 01:49:17;;;;;;;6.15;3.10;;;15.80;99.90;;;;;;7387049;19;20510;-82
2022/10/11 01:51:47;;;;;;;4.70;3.05;;;15.50;99.90;;;;;;7386671;19;20243;-83
2022/10/11 01:54:28;;;;;;;5.43;2.75;;;15.60;99.90;;;;;;7386883;19;20607;-82
2022/10/11 01:56:57;;;;;;;6.85;2.97;;;15.70;99.90;;;;;;7387716;19;20154;-83
2022/10/11 01:59:34;;;;;;;4.00;2.63;;;15.50;99.90;;;;;;7384637;19;20615;-84
2022/10/11 02:02:10;;;;;;;6.55;2.75;;;15.40;99.90;;;;;;7388848;19;20149;-83
2022/10/11 02:04:52;;;;;;;5.22;2.78;;;15.50;99.90;;;;;;7384186;19;20146;-82
2022/10/11 02:07:28;;;;;;;3.13;2.75;;;15.30;99.90;;;;;;7386921;19;20142;-83
2022/10/11 02:10:02;;;;;;;4.20;2.50;;;15.30;99.90;;;;;;7386949;19;20154;-82
2022/10/11 02:12:36;;;;;;;6.85;3.15;;;15.30;99.90;;;;;;7388128;19;20214;-82
2022/10/11 02:15:08;;;;;;;4.18;2.50;;;15.20;99.90;;;;;;7385390;19;20164;-84
2022/10/11 02:17:39;;;;;;;5.07;2.60;;;15.00;99.90;;;;;;7386165;19;20169;-83
2022/10/11 02:20:10;;;;;;;5.47;2.83;;;15.10;99.90;;;;;;7387712;19;20185;-75
2022/10/11 02:22:39;;;;;;;6.45;2.92;;;15.10;99.90;;;;;;7386715;19;20153;-76
2022/10/11 02:25:09;;;;;;;10.05;2.80;;;15.10;99.90;;;;;;7384995;19;20957;-75
2022/10/11 02:27:38;;;;;;;7.28;3.28;;;15.10;99.90;;;;;;7388737;19;20202;-76
2022/10/11 02:30:06;;;;;;;7.10;3.53;;;15.40;99.90;;;;;;7387205;19;20138;-77
2022/10/11 02:32:33;;;;;;;6.15;2.97;;;15.60;99.90;;;;;;7388693;19;20278;-83
2022/10/11 02:35:01;;;;;;;7.13;3.72;;;15.70;99.90;;;;;;7387610;19;20135;-82
2022/10/11 02:37:45;;;;;;;6.32;3.00;;;15.50;99.90;;;;;;7384358;19;20138;-83
2022/10/11 02:40:27;;;;;;;6.20;3.20;;;15.30;99.90;;;;;;7383505;19;20488;-83
2022/10/11 02:43:28;;;;;;;7.30;2.95;;;15.30;99.90;;;;;;7389601;19;20162;-82
2022/10/11 02:45:59;;;;;;;7.47;3.20;;;15.40;99.90;;;;;;7382901;19;20143;-81
2022/10/11 02:48:28;;;;;;;5.05;3.47;;;15.60;99.90;;;;;;7385984;19;20143;-82
2022/10/11 02:50:56;;;;;;;8.23;3.63;;;15.80;99.90;;;;;;7385072;19;20135;-82
2022/10/11 02:53:23;;;;;;;7.93;4.32;;;15.90;99.90;;;;;;7386777;19;20135;-82
2022/10/11 02:55:51;;;;;;;13.15;4.00;;;16.00;99.90;;;;;;7386074;19;20143;-82
2022/10/11 02:58:17;;;;;;;6.00;3.58;;;15.70;99.90;;;;;;7386421;19;20155;-83
2022/10/11 03:00:43;;;;;;;6.25;4.60;;;15.70;99.90;;;;;;7385180;19;20150;-84
2022/10/11 03:03:09;;;;;;;10.80;4.90;;;15.80;99.90;;;;;;7386266;19;20178;-83
2022/10/11 03:05:39;;;;;;;10.05;4.60;;;15.60;99.90;;;;;;7387550;19;20161;-82
2022/10/11 03:08:09;;;;;;;9.43;4.70;;;15.50;99.90;;;;;;7391935;19;20135;-81
2022/10/11 03:10:36;;;;;;;6.35;4.15;;;15.60;99.90;;;;;;7390590;19;20160;-82
2022/10/11 03:13:02;;;;;;;9.85;4.93;;;15.50;99.90;;;;;;7393986;19;20640;-79
2022/10/11 03:15:28;;;;;;;9.98;5.30;;;15.40;99.90;;;;;;7392492;19;20134;-82
2022/10/11 03:17:54;;;;;;;7.05;4.68;;;15.60;99.90;;;;;;7394560;19;20146;-79
2022/10/11 03:20:20;;;;;;;13.45;5.47;;;15.60;99.90;;;;;;7389856;19;20130;-82
2022/10/11 03:22:46;;;;;;;9.32;5.15;;;15.70;99.90;;;;;;7394794;19;20139;-83
2022/10/11 03:25:11;;;;;;;13.38;5.85;;;15.70;99.90;;;;;;7394401;19;20159;-83
2022/10/11 03:27:37;;;;;;;7.78;5.30;;;15.70;99.90;;;;;;7393366;19;20771;-82
2022/10/11 03:30:04;;;;;;;7.80;5.60;;;15.50;99.90;;;;;;7395124;19;20623;-81
2022/10/11 03:32:30;;;;;;;10.90;6.22;;;15.50;99.90;;;;;;7396900;19;20142;-82
2022/10/11 03:34:56;;;;;;;11.10;5.97;;;15.30;99.90;;;;;;7397389;19;20147;-83
2022/10/11 03:37:22;;;;;;;11.25;5.45;;;15.30;99.90;;;;;;7396476;19;20157;-81
2022/10/11 03:39:47;;;;;;;11.77;6.32;;;15.40;99.90;;;;;;7397784;19;20596;-82
2022/10/11 03:42:13;;;;;;;11.10;6.50;;;15.60;99.90;;;;;;7397163;19;20176;-84
2022/10/11 03:44:40;;;;;;;10.13;6.15;;;15.80;99.90;;;;;;7396936;19;20518;-79
2022/10/11 03:47:07;;;;;;;13.23;7.10;;;15.80;99.90;;;;;;7396124;19;20139;-83
2022/10/11 03:49:32;;;;;;;12.73;7.72;;;15.90;99.90;;;;;;7395180;19;20512;-83
2022/10/11 03:51:58;;;;;;;16.30;7.38;;;15.80;99.90;;;;;;7396136;19;20142;-82
2022/10/11 03:54:24;;;;;;;15.23;8.05;;;16.00;99.90;;;;;;7389671;19;20130;-82
2022/10/11 03:56:50;;;;;;;10.63;6.47;;;15.70;99.90;;;;;;7393741;19;20142;-81
2022/10/11 03:59:16;;;;;;;13.00;6.88;;;15.50;99.90;;;;;;7393425;19;20552;-83
2022/10/11 04:01:41;;;;;;;10.20;7.05;;;15.70;99.90;;;;;;7391539;19;20138;-82
2022/10/11 04:04:07;;;;;;;13.05;7.40;;;15.80;99.90;;;;;;7392071;19;20146;-80
2022/10/11 04:06:33;;;;;;;12.73;7.47;;;16.00;99.90;;;;;;7388862;19;20178;-81
2022/10/11 04:08:59;;;;;;;13.25;8.23;;;15.90;99.90;;;;;;7391577;19;20705;-82
2022/10/11 04:11:25;;;;;;;13.45;8.32;;;16.10;99.90;;;;;;7390162;19;20213;-81
2022/10/11 04:13:51;;;;;;;14.43;8.23;;;16.10;99.90;;;;;;7391409;19;20131;-80
2022/10/11 04:16:17;;;;;;;14.77;8.52;;;16.00;99.90;;;;;;7390365;19;20158;-82
2022/10/11 04:18:43;;;;;;;14.95;8.98;;;16.10;99.90;;;;;;7388899;19;20507;-82
2022/10/11 04:21:08;;;;;;;15.57;8.27;;;16.20;99.90;;;;;;7390213;19;20640;-81
2022/10/11 04:23:34;;;;;;;14.90;8.43;;;16.10;99.90;;;;;;7392510;19;20147;-83
2022/10/11 04:26:05;;;;;;;13.88;8.40;;;16.10;99.90;;;;;;7390885;19;20611;-82
2022/10/11 04:28:32;;;;;;;15.68;9.05;;;16.10;99.90;;;;;;7391591;19;20484;-83
2022/10/11 04:30:58;;;;;;;15.98;8.52;;;16.10;99.90;;;;;;7392253;19;20134;-82
2022/10/11 04:33:24;;;;;;;13.82;8.27;;;16.10;99.90;;;;;;7386758;19;20149;-81
2022/10/11 04:35:54;;;;;;;18.27;9.68;;;16.10;99.90;;;;;;7391478;19;20131;-82
2022/10/11 04:38:19;;;;;;;17.80;9.05;;;16.00;99.90;;;;;;7390546;19;20210;-82
2022/10/11 04:40:45;;;;;;;17.73;9.95;;;16.10;99.90;;;;;;7390865;19;20143;-82
2022/10/11 04:43:11;;;;;;;13.90;9.02;;;15.90;99.90;;;;;;7388003;19;20514;-83
2022/10/11 04:45:37;;;;;;;16.25;9.98;;;16.00;99.90;;;;;;7391337;19;20135;-80
2022/10/11 04:48:03;;;;;;;15.02;8.77;;;16.20;99.90;;;;;;7389006;19;20134;-82
2022/10/11 04:50:28;;;;;;;15.10;9.05;;;16.10;99.90;;;;;;7388576;19;20202;-82
2022/10/11 04:52:54;;;;;;;17.88;10.10;;;16.10;99.90;;;;;;7390388;19;20754;-79
2022/10/11 04:55:20;;;;;;;13.73;9.23;;;16.00;99.90;;;;;;7391193;19;20135;-81
2022/10/11 04:57:45;;;;;;;17.88;9.00;;;16.10;99.90;;;;;;7389950;19;20134;-82
2022/10/11 05:00:11;;;;;;;13.63;9.55;;;16.00;99.90;;;;;;7389263;19;20138;-82
2022/10/11 05:02:37;;;;;;;18.00;9.52;;;16.10;99.90;;;;;;7392163;19;20134;-82
2022/10/11 05:05:03;;;;;;;16.55;10.55;;;16.10;99.90;;;;;;7388481;19;20131;-81
2022/10/11 05:07:29;;;;;;;16.88;9.82;;;16.10;99.90;;;;;;7387280;19;20154;-82
2022/10/11 05:09:55;;;;;;;17.17;9.35;;;16.00;99.90;;;;;;7388590;19;20134;-82
2022/10/11 05:12:22;;;;;;;17.30;9.77;;;16.00;99.90;;;;;;7389512;19;20143;-82
2022/10/11 05:14:48;;;;;;;18.05;9.70;;;16.00;99.90;;;;;;7386240;19;20139;-82
2022/10/11 05:17:14;;;;;;;17.85;11.23;;;16.00;99.90;;;;;;7392454;19;20474;-82
2022/10/11 05:19:39;;;;;;;16.98;10.32;;;16.00;99.90;;;;;;7389634;19;20161;-82
2022/10/11 05:22:05;;;;;;;19.88;11.40;;;16.00;99.90;;;;;;7389480;19;20270;-81
2022/10/11 05:24:31;;;;;;;21.77;11.55;;;16.00;99.90;;;;;;7389814;19;20600;-80
2022/10/11 05:26:56;;;;;;;18.05;11.73;;;16.00;99.90;;;;;;7385775;19;20138;-79
2022/10/11 05:29:22;;;;;;;15.98;10.25;;;16.00;99.90;;;;;;7387378;19;20155;-82
2022/10/11 05:31:48;;;;;;;16.45;10.23;;;15.90;99.90;;;;;;7388124;19;20620;-83
2022/10/11 05:34:14;;;;;;;21.88;10.93;;;16.00;99.90;;;;;;7388000;19;20588;-81
2022/10/11 05:36:39;;;;;;;19.33;10.55;;;16.00;99.90;;;;;;7386334;19;20123;-81
2022/10/11 05:39:05;;;;;;;17.85;10.73;;;16.10;99.90;;;;;;7388181;19;20647;-82
2022/10/11 05:41:31;;;;;;;16.13;9.93;;;16.00;99.90;;;;;;7388285;19;20607;-80
2022/10/11 05:43:57;;;;;;;15.20;9.75;;;16.10;99.90;;;;;;7389299;19;20126;-79
2022/10/11 05:46:22;;;;;;;21.08;11.73;;;16.10;99.90;;;;;;7385923;19;20133;-80
2022/10/11 05:48:48;;;;;;;16.38;9.93;;;16.20;99.90;;;;;;7387559;19;20138;-79
2022/10/11 05:51:14;;;;;;;20.65;9.95;;;16.10;99.90;;;;;;7387609;19;20584;-79
2022/10/11 05:53:39;;;;;;;15.50;10.25;;;16.10;99.90;;;;;;7384697;19;20130;-80
2022/10/11 05:56:20;;;;;;;21.63;10.48;;;16.10;99.90;;;;;;7387620;19;20618;-77
2022/10/11 05:58:45;;;;;;;24.45;10.60;;;16.00;99.90;;;;;;7385282;19;20176;-80
2022/10/11 06:01:20;;;;;;;16.25;10.80;;;16.10;99.90;;;;;;7386808;19;20139;-79
2022/10/11 06:03:46;;;;;;;20.15;11.43;;;16.00;99.90;;;;;;7385839;19;20165;-80
2022/10/11 06:06:12;;;;;;;20.55;11.50;;;16.10;99.90;;;;;;7384892;19;20146;-82
2022/10/11 06:08:38;;;;;;;13.15;10.00;;;16.00;99.90;;;;;;7388440;19;20545;-81
2022/10/11 06:11:19;;;;;;;22.02;11.40;;;16.00;99.90;;;;;;7386341;19;20154;-76
2022/10/11 06:13:45;;;;;;;17.88;10.07;;;16.10;99.90;;;;;;7386083;19;20170;-79
2022/10/11 06:16:11;;;;;;;17.52;11.35;;;16.00;99.90;;;;;;7388065;19;20146;-81
2022/10/11 06:18:37;;;;;;;14.82;9.52;;;16.00;99.90;;;;;;7387433;19;20146;-80
2022/10/11 06:21:03;;;;;;;15.98;10.00;;;16.10;99.90;;;;;;7388390;19;20672;-80
2022/10/11 06:23:29;;;;;;;15.88;9.95;;;16.00;99.90;;;;;;7385862;19;20596;-80
2022/10/11 06:25:59;;;;;;;15.32;9.00;;;16.00;99.90;;;;;;7385893;19;20628;-79
2022/10/11 06:28:28;;;;;;;18.02;9.02;;;15.90;99.90;;;;;;7382822;19;20131;-79
2022/10/11 06:30:54;;;;;;;18.63;10.05;;;15.90;99.90;;;;;;7387562;19;20134;-79
2022/10/11 06:33:21;;;;;;;15.90;9.32;;;15.90;99.90;;;;;;7386596;19;20135;-78
2022/10/11 06:35:47;;;;;;;15.82;10.07;;;15.90;99.90;;;;;;7386312;19;20141;-80
2022/10/11 06:38:13;;;;;;;15.27;8.77;;;15.90;99.90;;;;;;7386780;19;20138;-79
2022/10/11 06:40:38;;;;;;;13.38;9.05;;;15.90;99.90;;;;;;7388294;19;20138;-79
2022/10/11 06:43:04;;;;;;;16.17;8.98;;;16.00;99.90;;;;;;7393445;19;20166;-78
2022/10/11 06:45:30;;;;;;;14.80;8.55;;;16.00;99.90;;;;;;7395719;19;20643;-78
2022/10/11 06:47:56;;;;;;;15.95;9.30;;;15.90;99.90;;;;;;7388542;19;20137;-79
2022/10/11 06:50:22;;;;;;;15.82;8.80;;;15.90;99.90;;;;;;7398612;19;20148;-80
2022/10/11 06:52:48;;;;;;;13.00;8.63;;;15.90;99.90;;;;;;7396124;19;20134;-80
2022/10/11 06:55:13;;;;;;;14.00;8.63;;;16.00;99.90;;;;;;7397544;19;20265;-80
2022/10/11 06:57:39;;;;;;;11.10;8.13;;;15.90;99.90;;;;;;7395731;19;20193;-79
2022/10/11 07:00:06;;;;;;;19.80;9.52;;;15.90;99.90;;;;;;7395685;19;20602;-79
2022/10/11 07:02:32;;;;;;;13.35;8.15;;;15.90;99.90;;;;;;7396284;19;20134;-79
2022/10/11 07:04:57;;;;;;;11.73;8.38;;;15.90;99.90;;;;;;7395659;19;20522;-78
2022/10/11 07:07:23;;;;;;;15.55;8.65;;;16.00;99.90;;;;;;7394265;19;20147;-79
2022/10/11 07:09:49;;;;;;;15.40;8.57;;;16.00;99.90;;;;;;7394619;19;20135;-79
2022/10/11 07:12:15;;;;;;;12.60;7.82;;;16.00;99.90;;;;;;7396629;19;20536;-80
2022/10/11 07:14:41;;;;;;;13.52;8.02;;;16.00;99.90;;;;;;7397553;19;20130;-78
2022/10/11 07:17:07;;;;;;;13.98;8.77;;;16.00;99.90;;;;;;7398051;19;20512;-80
2022/10/11 07:19:32;;;;;;;13.57;8.38;;;16.10;99.90;;;;;;7395157;19;20145;-78
2022/10/11 07:21:58;;;;;;;16.02;8.32;;;16.00;99.90;;;;;;7395454;19;20134;-79
2022/10/11 07:24:24;;;;;;;13.25;7.88;;;16.00;99.90;;;;;;7394597;19;20138;-79
2022/10/11 07:26:50;;;;;;;13.80;8.52;;;16.00;99.90;;;;;;7395845;19;20206;-79
2022/10/11 07:29:16;;;;;;;15.45;9.15;;;16.00;99.90;;;;;;7395621;19;20130;-80
2022/10/11 07:31:42;;;;;;;13.90;9.18;;;15.90;99.90;;;;;;7394150;19;20135;-80
2022/10/11 07:34:08;;;;;;;16.25;8.57;;;16.20;99.90;;;;;;7394498;19;20151;-80
2022/10/11 07:36:34;;;;;;;16.40;8.65;;;16.10;99.90;;;;;;7392873;19;20150;-81
2022/10/11 07:39:01;;;;;;;18.98;9.23;;;16.10;99.90;;;;;;7391937;19;20139;-80
2022/10/11 07:41:27;;;;;;;16.92;9.57;;;16.10;99.90;;;;;;7392966;19;20131;-80
2022/10/11 07:43:53;;;;;;;14.43;8.65;;;16.20;99.90;;;;;;7389770;19;20595;-80
2022/10/11 07:46:19;;;;;;;17.27;9.55;;;16.20;99.90;;;;;;7390284;19;20137;-80
2022/10/11 07:48:48;;;;;;;17.83;9.50;;;16.00;99.90;;;;;;7390374;19;20126;-79
2022/10/11 07:51:18;;;;;;;16.73;8.52;;;16.10;99.90;;;;;;7393431;19;20139;-80
2022/10/11 07:53:47;;;;;;;13.77;9.05;;;16.10;99.90;;;;;;7394649;19;20213;-80
2022/10/11 07:56:16;;;;;;;16.10;9.13;;;16.10;99.90;;;;;;7392710;19;20135;-80
2022/10/11 07:58:42;;;;;;;14.15;9.10;;;16.10;99.90;;;;;;7392922;19;20122;-80
2022/10/11 08:01:09;;;;;;;15.50;10.25;;;16.10;99.90;;;;;;7387979;19;20517;-79
2022/10/11 08:03:36;;;;;;;15.23;9.13;;;16.00;99.90;;;;;;7389906;19;20497;-80
2022/10/11 08:06:05;;;;;;;15.15;8.80;;;16.00;99.90;;;;;;7389115;19;20209;-79
2022/10/11 08:08:32;;;;;;;13.57;9.20;;;16.10;99.90;;;;;;7390654;19;20485;-79
2022/10/11 08:10:58;;;;;;;13.27;9.25;;;16.00;99.90;;;;;;7392744;19;20143;-80
2022/10/11 08:13:25;;;;;;;15.88;9.18;;;16.10;99.90;;;;;;7396067;19;20639;-80
2022/10/11 08:15:51;;;;;;;18.23;8.75;;;16.10;99.90;;;;;;7390796;19;20159;-81
2022/10/11 08:18:17;;;;;;;14.43;9.50;;;16.20;99.90;;;;;;7392838;19;20135;-80
2022/10/11 08:20:44;;;;;;;14.63;9.23;;;16.20;99.90;;;;;;7391333;19;20503;-80
2022/10/11 08:23:11;;;;;;;12.63;8.73;;;16.20;99.90;;;;;;7392492;19;20221;-81
2022/10/11 08:25:42;;;;;;;16.48;9.15;;;16.30;99.90;;;;;;7392901;19;20259;-79
2022/10/11 08:28:14;;;;;;;17.42;9.48;;;16.20;99.90;;;;;;7390208;19;20145;-80
2022/10/11 08:30:45;;;;;;;20.15;9.48;;;16.30;99.90;;;;;;7392024;19;20169;-79
2022/10/11 08:33:11;;;;;;;19.20;10.48;;;16.40;99.90;;;;;;7391229;19;20154;-81
2022/10/11 08:35:37;;;;;;;14.43;9.52;;;16.30;99.90;;;;;;7387389;19;20138;-79
2022/10/11 08:38:02;;;;;;;15.75;9.07;;;16.30;99.90;;;;;;7392291;19;20138;-81
2022/10/11 08:40:28;;;;;;;16.80;9.20;;;16.40;99.90;;;;;;7393117;19;20879;-79
2022/10/11 08:43:02;;;;;;;19.58;9.50;;;16.60;99.90;;;;;;7390301;19;20231;-79
2022/10/11 08:45:34;;;;;;;15.55;9.38;;;16.40;99.90;;;;;;7391273;19;20133;-81
2022/10/11 08:48:32;;;;;;;18.60;9.60;;;16.40;99.90;;;;;;7386294;19;20138;-76
2022/10/11 08:51:00;;;;;;;18.27;9.43;;;16.40;99.90;;;;;;7389167;19;20142;-80
2022/10/11 08:53:56;;;;;;;20.30;9.93;;;16.40;99.90;;;;;;7396743;19;20157;-81
2022/10/11 08:56:24;;;;;;;15.90;10.25;;;16.40;99.90;;;;;;7391481;19;20138;-80
2022/10/11 08:59:28;;;;;;;18.05;9.80;;;16.40;99.90;;;;;;7389695;19;20135;-81
2022/10/11 09:02:03;;;;;;;17.85;10.60;;;16.40;99.90;;;;;;7389115;19;20138;-80
2022/10/11 09:04:31;;;;;;;17.38;9.63;;;16.40;99.90;;;;;;7385703;19;20501;-80
2022/10/11 09:07:34;;;;;;;16.05;9.38;;;16.30;99.90;;;;;;7386772;19;20267;-80
2022/10/11 09:10:10;;;;;;;17.15;10.38;;;16.30;99.90;;;;;;7388435;19;20146;-79
2022/10/11 09:13:11;;;;;;;21.15;10.82;;;16.20;99.90;;;;;;7388264;19;20166;-78
2022/10/11 09:15:55;;;;;;;17.85;11.18;;;16.20;99.90;;;;;;7391973;19;20134;-79
2022/10/11 09:18:27;;;;;;;18.13;10.63;;;16.30;99.90;;;;;;7392170;19;20167;-80
2022/10/11 09:21:20;;;;;;;16.98;10.48;;;16.20;99.90;;;;;;7391965;19;20495;-80
2022/10/11 09:24:06;;;;;;;23.50;10.82;;;16.30;99.90;;;;;;7387460;19;20135;-82
2022/10/11 09:26:55;;;;;;;17.42;9.85;;;16.30;99.90;;;;;;7392071;19;20146;-80
2022/10/11 09:29:41;;;;;;;15.63;10.73;;;16.30;99.90;;;;;;7393483;19;20259;-80
2022/10/11 09:32:14;;;;;;;19.15;11.15;;;16.20;99.90;;;;;;7387025;19;20210;-80
2022/10/11 09:34:40;;;;;;;18.88;9.55;;;16.30;99.90;;;;;;7387835;19;20624;-80
2022/10/11 09:37:31;;;;;;;15.77;9.52;;;16.30;99.90;;;;;;7389670;19;20150;-80
2022/10/11 09:40:16;;;;;;;19.05;10.55;;;16.20;99.90;;;;;;7386274;19;20158;-79
2022/10/11 09:42:42;;;;;;;13.07;9.45;;;16.20;99.90;;;;;;7389077;19;20145;-80
2022/10/11 09:45:16;;;;;;;15.98;10.00;;;16.30;99.90;;;;;;7387100;19;20502;-80
2022/10/11 09:47:42;;;;;;;16.88;9.70;;;16.30;99.90;;;;;;7385988;19;20134;-82
2022/10/11 09:50:17;;;;;;;20.38;10.70;;;16.30;99.90;;;;;;7387885;19;20596;-80
2022/10/11 09:52:51;;;;;;;13.23;9.15;;;16.40;99.90;;;;;;7389375;19;20150;-79
2022/10/11 09:55:38;;;;;;;21.30;10.40;;;16.40;99.90;;;;;;7388468;19;20201;-79
2022/10/11 09:58:22;;;;;;;17.33;10.13;;;16.30;99.90;;;;;;7386867;19;20147;-80
2022/10/11 10:00:58;;;;;;;21.45;10.85;;;16.30;99.90;;;;;;7388858;19;20617;-80
2022/10/11 10:03:29;;;;;;;19.95;10.40;;;16.40;99.90;;;;;;7388683;19;20143;-79
2022/10/11 10:06:21;;;;;;;16.55;10.25;;;16.50;99.90;;;;;;7386600;19;20667;-79
2022/10/11 10:08:47;;;;;;;15.18;9.82;;;16.50;99.90;;;;;;7387418;19;20149;-79
2022/10/11 10:11:13;;;;;;;20.73;10.55;;;16.50;99.90;;;;;;7385340;19;20138;-79
2022/10/11 10:13:45;;;;;;;15.43;10.07;;;16.40;99.90;;;;;;7388810;19;20142;-79
2022/10/11 10:16:31;;;;;;;18.55;9.68;;;16.50;99.90;;;;;;7391119;19;20135;-80
2022/10/11 10:19:03;;;;;;;18.15;9.60;;;16.60;99.90;;;;;;7390272;19;20146;-79
2022/10/11 10:21:34;;;;;;;18.73;9.73;;;16.60;99.90;;;;;;7387097;19;20512;-78
2022/10/11 10:24:04;;;;;;;20.02;10.55;;;16.60;99.90;;;;;;7388978;19;20145;-81
2022/10/11 10:26:30;;;;;;;20.25;11.13;;;16.50;99.90;;;;;;7386810;19;20546;-79
2022/10/11 10:29:08;;;;;;;20.38;11.80;;;16.50;99.90;;;;;;7386812;19;20500;-81
2022/10/11 10:31:53;;;;;;;17.63;10.07;;;16.60;99.90;;;;;;7389244;19;20209;-79
2022/10/11 10:34:27;;;;;;;17.85;9.75;;;16.50;99.90;;;;;;7387135;19;20142;-80
2022/10/11 10:36:56;;;;;;;17.80;10.70;;;16.50;99.90;;;;;;7387677;19;20159;-81
2022/10/11 10:39:25;;;;;;;18.35;10.43;;;16.70;99.90;;;;;;7388619;19;20541;-78
2022/10/11 10:41:51;;;;;;;19.65;9.82;;;16.60;99.90;;;;;;7388600;19;20180;-80
2022/10/11 10:44:16;;;;;;;17.17;9.38;;;16.60;99.90;;;;;;7384004;19;20191;-79
2022/10/11 10:47:05;;;;;;;14.65;9.35;;;16.60;99.90;;;;;;7385139;19;20150;-79
2022/10/11 10:49:43;;;;;;;12.80;8.65;;;16.60;99.90;;;;;;7384362;19;20141;-81
2022/10/11 10:52:52;;;;;;;15.93;9.18;;;16.60;99.90;;;;;;7385910;19;20146;-81
2022/10/11 10:55:24;;;;;;;18.52;9.02;;;16.60;99.90;;;;;;7388227;19;20165;-80
2022/10/11 10:58:14;;;;;;;17.10;8.63;;;16.60;99.90;;;;;;7384658;19;20245;-77
2022/10/11 11:00:46;;;;;;;16.33;9.10;;;16.60;99.90;;;;;;7384092;19;20171;-79
2022/10/11 11:03:41;;;;;;;14.30;9.73;;;16.60;99.90;;;;;;7387458;19;20150;-80
2022/10/11 11:06:14;;;;;;;14.27;8.65;;;16.70;99.90;;;;;;7386471;19;20184;-79
2022/10/11 11:08:50;;;;;;;14.60;8.52;;;16.70;99.90;;;;;;7383921;19;20150;-81
2022/10/11 11:11:37;;;;;;;19.33;8.77;;;16.70;99.90;;;;;;7388398;19;20176;-81
2022/10/11 11:14:16;;;;;;;14.35;9.00;;;16.80;99.90;;;;;;7391965;19;20135;-82
2022/10/11 11:17:15;;;;;;;16.83;8.73;;;16.70;99.90;;;;;;7386305;19;20154;-81
2022/10/11 11:20:27;;;;;;;15.57;8.55;;;16.80;99.90;;;;;;7384821;19;20142;-79
2022/10/11 11:23:11;;;;;;;14.10;8.27;;;16.80;99.90;;;;;;7383641;19;20621;-80
2022/10/11 11:25:46;;;;;;;14.30;8.48;;;16.80;99.90;;;;;;7386989;19;20139;-81
2022/10/11 11:28:40;;;;;;;16.67;8.73;;;16.80;99.90;;;;;;7389054;19;20141;-79
2022/10/11 11:31:17;;;;;;;19.20;8.60;;;16.80;99.90;;;;;;7390877;19;20158;-80
2022/10/11 11:33:49;;;;;;;15.73;8.43;;;16.90;99.90;;;;;;7392353;19;20161;-80
2022/10/11 11:36:28;;;;;;;15.00;8.40;;;16.90;99.90;;;;;;7391251;19;20146;-80
2022/10/11 11:39:05;;;;;;;16.08;8.07;;;16.80;99.90;;;;;;7391777;19;20579;-81
2022/10/11 11:41:42;;;;;;;11.50;7.78;;;16.80;99.90;;;;;;7391974;19;20134;-79
2022/10/11 11:44:13;;;;;;;15.18;8.00;;;16.80;99.90;;;;;;7396925;19;20177;-80
2022/10/11 11:46:53;;;;;;;17.20;7.90;;;16.80;99.90;;;;;;7390411;19;20138;-79
2022/10/11 11:49:28;;;;;;;10.73;7.43;;;16.90;99.90;;;;;;7392127;19;20141;-79
2022/10/11 11:51:55;;;;;;;17.05;8.00;;;16.80;99.90;;;;;;7394076;19;20141;-80
2022/10/11 11:54:39;;;;;;;15.10;9.73;;;16.80;99.90;;;;;;7390621;19;20142;-79
2022/10/11 11:57:34;;;;;;;13.48;8.18;;;16.80;99.90;;;;;;7392000;19;20138;-79
2022/10/11 12:00:19;;;;;;;12.88;7.82;;;16.80;99.90;;;;;;7391256;19;20135;-79
2022/10/11 12:02:59;;;;;;;16.65;7.47;;;16.90;99.90;;;;;;7390478;19;20226;-79
2022/10/11 12:05:32;;;;;;;12.80;7.35;;;17.00;99.90;;;;;;7392555;19;20138;-78
2022/10/11 12:08:07;;;;;;;12.15;6.50;;;17.00;99.90;;;;;;7391442;19;20143;-78
2022/10/11 12:10:33;;;;;;;10.35;7.00;;;17.10;99.90;;;;;;7390893;19;20213;-77
2022/10/11 12:13:16;;;;;;;11.18;7.03;;;17.10;99.90;;;;;;7389267;19;20159;-79
2022/10/11 12:16:16;;;;;;;12.05;7.07;;;17.10;99.90;;;;;;7392840;19;20134;-80
2022/10/11 12:19:00;;;;;;;15.10;7.45;;;17.10;99.90;;;;;;7386367;19;20604;-78
2022/10/11 12:21:28;;;;;;;14.85;8.00;;;17.20;99.90;;;;;;7390287;19;20658;-78
2022/10/11 12:23:56;;;;;;;12.23;7.03;;;17.10;99.90;;;;;;7392883;19;20142;-79
2022/10/11 12:26:55;;;;;;;13.45;7.70;;;17.10;99.90;;;;;;7390142;19;20150;-81
2022/10/11 12:29:41;;;;;;;22.33;15.68;;;17.10;99.90;;;;;;7388276;19;20151;-80
2022/10/11 12:32:09;;;;;;;13.57;8.85;;;17.10;99.90;;;;;;7390197;19;20134;-81
2022/10/11 12:34:42;;;;;;;12.93;7.45;;;17.10;99.90;;;;;;7390060;19;20150;-79
2022/10/11 12:37:18;;;;;;;9.75;7.15;;;17.10;99.90;;;;;;7392729;19;20139;-80
2022/10/11 12:39:57;;;;;;;11.50;7.70;;;17.10;99.90;;;;;;7390696;19;20141;-81
2022/10/11 12:42:34;;;;;;;12.07;7.10;;;17.20;99.90;;;;;;7388837;19;20157;-80
2022/10/11 12:45:12;;;;;;;9.93;6.55;;;17.20;99.90;;;;;;7389965;19;20326;-80
2022/10/11 12:48:06;;;;;;;12.77;7.03;;;17.10;99.90;;;;;;7387254;19;20150;-80
2022/10/11 12:50:54;;;;;;;11.70;7.20;;;17.00;99.90;;;;;;7389591;19;20139;-80
2022/10/11 12:53:29;;;;;;;12.27;6.90;;;16.90;99.90;;;;;;7387731;19;20251;-80
2022/10/11 12:56:16;;;;;;;10.82;6.65;;;17.00;99.90;;;;;;7390536;19;20169;-79
2022/10/11 12:58:46;;;;;;;10.60;6.93;;;17.10;99.90;;;;;;7391500;19;20226;-82
2022/10/11 13:01:21;;;;;;;10.43;6.63;;;17.10;99.90;;;;;;7391896;19;20166;-80